createdAt,value
2022-12-19T00:01:56.824Z,29.43
2022-12-19T00:04:23.525Z,31.67
2022-12-19T00:06:51.693Z,32.57
2022-12-19T00:09:18.665Z,32.53
2022-12-19T00:11:47.269Z,31.90
2022-12-19T00:14:13.978Z,29.47
2022-12-19T00:16:45.431Z,29.87
2022-12-19T00:19:15.637Z,32.00
2022-12-19T00:21:47.237Z,31.47
2022-12-19T00:24:20.668Z,31.27
2022-12-19T00:26:48.649Z,29.27
2022-12-19T00:29:17.733Z,30.37
2022-12-19T00:31:44.684Z,30.73
2022-12-19T00:34:11.432Z,33.23
2022-12-19T00:36:38.057Z,31.40
2022-12-19T00:39:08.780Z,29.30
2022-12-19T00:41:40.366Z,29.47
2022-12-19T00:44:14.080Z,30.03
2022-12-19T00:46:41.091Z,30.27
2022-12-19T00:49:08.187Z,34.03
2022-12-19T00:51:37.461Z,31.83
2022-12-19T00:54:06.610Z,29.17
2022-12-19T00:56:37.330Z,29.83
2022-12-19T00:59:05.605Z,28.23
2022-12-19T01:01:38.201Z,29.70
2022-12-19T01:04:28.885Z,30.98
2022-12-19T01:07:05.655Z,28.43
2022-12-19T01:09:35.969Z,27.93
2022-12-19T01:12:24.728Z,29.27
2022-12-19T01:15:04.568Z,27.87
2022-12-19T01:17:34.775Z,31.07
2022-12-19T01:20:13.372Z,26.80
2022-12-19T01:22:40.021Z,25.57
2022-12-19T01:25:09.081Z,26.83
2022-12-19T01:27:40.919Z,28.20
2022-12-19T01:30:08.245Z,29.83
2022-12-19T01:32:36.394Z,24.07
2022-12-19T01:35:03.953Z,28.03
2022-12-19T01:37:30.593Z,27.40
2022-12-19T01:39:57.211Z,26.00
2022-12-19T01:42:26.383Z,26.07
2022-12-19T01:45:13.699Z,26.17
2022-12-19T01:47:48.432Z,28.03
2022-12-19T01:50:35.516Z,28.23
2022-12-19T01:53:03.283Z,26.30
2022-12-19T01:55:30.527Z,27.60
2022-12-19T01:58:02.612Z,25.40
2022-12-19T02:00:31.410Z,25.53
2022-12-19T02:03:10.608Z,25.07
2022-12-19T02:05:40.791Z,25.90
2022-12-19T02:08:07.780Z,27.00
2022-12-19T02:10:34.381Z,26.73
2022-12-19T02:13:03.432Z,27.70
2022-12-19T02:15:33.716Z,23.77
2022-12-19T02:18:12.483Z,23.70
2022-12-19T02:20:52.414Z,27.48
2022-12-19T02:23:48.991Z,26.70
2022-12-19T02:26:46.795Z,23.73
2022-12-19T02:29:23.363Z,25.43
2022-12-19T02:31:56.038Z,23.20
2022-12-19T02:34:39.944Z,28.83
2022-12-19T02:37:18.259Z,24.93
2022-12-19T02:40:09.353Z,28.67
2022-12-19T02:42:43.855Z,23.90
2022-12-19T02:45:20.056Z,27.60
2022-12-19T02:47:54.829Z,24.60
2022-12-19T02:50:23.900Z,24.63
2022-12-19T02:52:50.662Z,23.13
2022-12-19T02:55:26.727Z,23.13
2022-12-19T02:58:21.353Z,24.53
2022-12-19T03:01:07.304Z,22.43
2022-12-19T03:03:43.831Z,21.97
2022-12-19T03:06:40.111Z,23.33
2022-12-19T03:09:06.876Z,25.37
2022-12-19T03:11:39.141Z,22.53
2022-12-19T03:14:17.217Z,23.63
2022-12-19T03:16:44.056Z,24.30
2022-12-19T03:19:13.723Z,24.45
2022-12-19T03:21:50.677Z,24.80
2022-12-19T03:24:21.011Z,23.97
2022-12-19T03:27:01.212Z,23.13
2022-12-19T03:29:34.593Z,21.27
2022-12-19T03:32:09.343Z,23.83
2022-12-19T03:34:43.894Z,21.33
2022-12-19T03:37:17.236Z,19.83
2022-12-19T03:39:50.917Z,23.50
2022-12-19T03:42:37.371Z,21.93
2022-12-19T03:45:08.847Z,21.83
2022-12-19T03:47:44.336Z,22.93
2022-12-19T03:50:11.256Z,24.33
2022-12-19T03:52:52.067Z,20.30
2022-12-19T03:55:32.102Z,20.60
2022-12-19T03:58:19.152Z,23.43
2022-12-19T04:00:48.571Z,21.83
2022-12-19T04:03:17.571Z,23.60
2022-12-19T04:05:47.053Z,24.10
2022-12-19T04:08:14.443Z,22.17
2022-12-19T04:11:04.196Z,22.93
2022-12-19T04:14:07.517Z,21.90
2022-12-19T04:16:40.467Z,21.17
2022-12-19T04:19:23.495Z,21.30
2022-12-19T04:22:00.091Z,22.40
2022-12-19T04:24:36.004Z,21.97
2022-12-19T04:27:10.001Z,22.73
2022-12-19T04:29:39.982Z,24.87
2022-12-19T04:32:08.646Z,20.77
2022-12-19T04:34:38.865Z,22.70
2022-12-19T04:37:09.731Z,24.40
2022-12-19T04:39:36.485Z,22.63
2022-12-19T04:42:03.185Z,20.27
2022-12-19T04:44:29.933Z,23.37
2022-12-19T04:46:59.173Z,20.37
2022-12-19T04:49:25.859Z,25.07
2022-12-19T04:51:55.054Z,20.80
2022-12-19T04:54:22.049Z,24.27
2022-12-19T04:56:50.839Z,21.00
2022-12-19T04:59:17.492Z,21.83
2022-12-19T05:01:46.603Z,24.87
2022-12-19T05:04:17.956Z,24.23
2022-12-19T05:06:44.680Z,23.27
2022-12-19T05:09:12.069Z,24.00
2022-12-19T05:11:38.826Z,23.43
2022-12-19T05:14:05.616Z,22.47
2022-12-19T05:16:32.494Z,24.65
2022-12-19T05:19:01.554Z,23.03
2022-12-19T05:21:30.723Z,20.70
2022-12-19T05:23:59.982Z,24.53
2022-12-19T05:26:26.656Z,22.60
2022-12-19T05:28:53.371Z,23.77
2022-12-19T05:31:21.370Z,22.47
2022-12-19T05:33:51.289Z,23.80
2022-12-19T05:36:18.787Z,24.80
2022-12-19T05:38:45.702Z,24.83
2022-12-19T05:41:14.843Z,21.43
2022-12-19T05:43:42.416Z,24.83
2022-12-19T05:46:11.551Z,22.93
2022-12-19T05:48:40.656Z,21.67
2022-12-19T05:51:10.817Z,23.13
2022-12-19T05:53:38.768Z,24.43
2022-12-19T05:56:11.384Z,23.43
2022-12-19T05:58:43.490Z,22.63
2022-12-19T06:01:16.970Z,23.85
2022-12-19T06:03:44.441Z,22.10
2022-12-19T06:06:18.015Z,23.40
2022-12-19T06:08:44.742Z,21.83
2022-12-19T06:11:12.777Z,21.50
2022-12-19T06:13:42.224Z,21.80
2022-12-19T06:16:14.726Z,22.93
2022-12-19T06:18:44.858Z,20.07
2022-12-19T06:21:20.966Z,24.17
2022-12-19T06:23:49.957Z,20.90
2022-12-19T06:26:20.153Z,21.73
2022-12-19T06:28:51.688Z,19.97
2022-12-19T06:31:22.511Z,23.13
2022-12-19T06:33:52.233Z,20.53
2022-12-19T06:36:26.129Z,23.27
2022-12-19T06:38:57.994Z,22.40
2022-12-19T06:41:43.830Z,23.07
2022-12-19T06:44:17.112Z,28.48
2022-12-19T06:46:44.584Z,24.27
2022-12-19T06:49:11.640Z,23.37
2022-12-19T06:51:43.163Z,27.47
2022-12-19T06:54:13.370Z,24.53
2022-12-19T06:56:43.296Z,28.97
2022-12-19T06:59:13.731Z,28.40
2022-12-19T07:01:58.416Z,27.87
2022-12-19T07:04:39.277Z,28.80
2022-12-19T07:07:08.379Z,31.93
2022-12-19T07:09:37.308Z,33.10
2022-12-19T07:12:06.409Z,29.53
2022-12-19T07:14:37.918Z,32.90
2022-12-19T07:17:07.661Z,30.87
2022-12-19T07:19:35.081Z,34.10
2022-12-19T07:22:08.237Z,31.67
2022-12-19T07:24:36.056Z,32.37
2022-12-19T07:27:03.449Z,37.85
2022-12-19T07:29:34.812Z,35.13
2022-12-19T07:32:01.511Z,32.30
2022-12-19T07:34:30.327Z,33.53
2022-12-19T07:36:57.088Z,34.60
2022-12-19T07:39:24.035Z,32.85
2022-12-19T07:41:50.725Z,32.83
2022-12-19T07:44:17.522Z,34.23
2022-12-19T07:46:47.175Z,31.83
2022-12-19T07:49:17.083Z,31.27
2022-12-19T07:51:48.096Z,34.70
2022-12-19T07:54:17.276Z,32.87
2022-12-19T07:56:46.431Z,33.73
2022-12-19T07:59:15.574Z,31.67
2022-12-19T08:01:42.438Z,32.23
2022-12-19T08:04:09.298Z,31.57
2022-12-19T08:06:40.737Z,30.53
2022-12-19T08:09:08.266Z,32.38
2022-12-19T08:11:37.531Z,31.47
2022-12-19T08:14:06.596Z,32.50
2022-12-19T08:17:10.765Z,29.43
2022-12-19T08:19:28.160Z,29.67
2022-12-19T08:21:54.848Z,32.10
2022-12-19T08:24:21.555Z,30.10
2022-12-19T08:26:48.183Z,30.17
2022-12-19T08:29:14.820Z,30.93
2022-12-19T08:31:43.733Z,28.73
2022-12-19T08:34:10.510Z,29.33
2022-12-19T08:36:39.764Z,29.00
2022-12-19T08:39:07.185Z,26.37
2022-12-19T08:41:33.945Z,28.43
2022-12-19T08:44:01.486Z,29.70
2022-12-19T08:46:28.803Z,26.27
2022-12-19T08:54:19.822Z,29.67
2022-12-19T08:56:48.723Z,28.63
2022-12-19T08:59:30.547Z,31.30
2022-12-19T09:02:02.340Z,32.17
2022-12-19T09:05:59.415Z,30.13
2022-12-19T09:07:18.458Z,33.73
2022-12-19T09:09:45.384Z,32.07
2022-12-19T09:12:18.456Z,28.50
2022-12-19T09:14:47.660Z,32.23
2022-12-19T09:17:17.194Z,36.97
2022-12-19T09:19:47.484Z,31.97
2022-12-19T09:22:14.822Z,31.53
2022-12-19T09:24:41.502Z,33.83
2022-12-19T09:27:08.250Z,32.00
2022-12-19T09:29:35.825Z,31.23
2022-12-19T09:32:02.961Z,30.70
2022-12-19T09:34:37.970Z,32.67
2022-12-19T09:37:15.380Z,32.40
2022-12-19T09:39:47.124Z,29.33
2022-12-19T09:43:01.100Z,32.20
2022-12-19T09:45:54.659Z,29.00
2022-12-19T09:48:24.662Z,32.47
2022-12-19T09:51:10.114Z,29.87
2022-12-19T09:54:16.255Z,31.37
2022-12-19T09:56:46.421Z,29.37
2022-12-19T09:59:28.756Z,31.30
2022-12-19T10:02:24.961Z,29.97
2022-12-19T10:05:31.998Z,30.77
2022-12-19T10:08:09.191Z,28.53
2022-12-19T10:12:39.409Z,27.07
2022-12-19T10:14:09.007Z,29.73
2022-12-19T10:17:23.517Z,26.13
2022-12-19T10:19:55.930Z,24.77
2022-12-19T10:22:35.797Z,25.23
2022-12-19T10:25:17.503Z,27.30
2022-12-19T10:27:59.323Z,26.38
2022-12-19T10:30:32.787Z,27.10
2022-12-19T10:33:26.658Z,24.53
2022-12-19T10:36:02.158Z,22.40
2022-12-19T10:38:46.257Z,20.70
2022-12-19T10:41:28.770Z,20.87
2022-12-19T10:44:07.185Z,22.03
2022-12-19T10:46:41.571Z,21.83
2022-12-19T10:49:22.851Z,22.80
2022-12-19T10:51:58.776Z,20.70
2022-12-19T10:54:48.820Z,21.63
2022-12-19T10:57:25.747Z,19.90
2022-12-19T11:00:13.782Z,20.53
2022-12-19T11:02:48.139Z,20.30
2022-12-19T11:05:24.224Z,18.93
2022-12-19T11:08:01.262Z,21.05
2022-12-19T11:11:38.606Z,18.47
2022-12-19T11:19:24.795Z,17.83
2022-12-19T11:22:04.885Z,19.23
2022-12-19T11:29:16.170Z,16.03
2022-12-19T11:29:26.287Z,19.43
2022-12-19T11:30:08.456Z,18.90
2022-12-19T11:30:09.926Z,18.20
2022-12-19T11:34:21.128Z,17.93
2022-12-19T11:36:56.154Z,18.17
2022-12-19T11:39:33.253Z,18.70
2022-12-19T11:42:25.202Z,18.03
2022-12-19T11:45:07.338Z,19.67
2022-12-19T11:47:42.097Z,17.43
2022-12-19T11:50:14.206Z,17.47
2022-12-19T11:53:19.938Z,18.43
2022-12-19T11:55:55.856Z,18.33
2022-12-19T11:58:26.412Z,16.80
2022-12-19T12:01:17.144Z,16.20
2022-12-19T12:04:13.112Z,15.97
2022-12-19T12:06:54.903Z,16.57
2022-12-19T12:11:07.846Z,18.60
2022-12-19T12:23:50.617Z,18.17
2022-12-19T12:28:07.086Z,14.13
2022-12-19T12:31:07.207Z,17.13
2022-12-19T12:31:10.658Z,14.37
2022-12-19T12:31:51.386Z,15.17
2022-12-19T12:32:06.506Z,17.03
2022-12-19T12:35:47.064Z,18.27
2022-12-19T12:38:18.717Z,17.83
2022-12-19T12:40:59.088Z,15.17
2022-12-19T12:43:33.997Z,18.20
2022-12-19T12:46:05.056Z,19.17
2022-12-19T12:48:38.392Z,16.00
2022-12-19T12:51:07.059Z,17.35
2022-12-19T12:53:37.595Z,17.03
2022-12-19T12:56:07.721Z,16.50
2022-12-19T12:58:53.822Z,17.80
2022-12-19T13:01:29.821Z,17.60
2022-12-19T13:04:04.327Z,19.45
2022-12-19T13:06:35.600Z,18.20
2022-12-19T13:09:08.269Z,17.40
2022-12-19T13:12:39.699Z,16.83
2022-12-19T13:15:32.563Z,21.37
2022-12-19T13:18:34.725Z,18.80
2022-12-19T13:21:08.833Z,17.90
2022-12-19T13:23:38.651Z,18.80
2022-12-19T13:26:19.940Z,20.47
2022-12-19T13:28:46.918Z,17.33
2022-12-19T13:31:22.479Z,18.10
2022-12-19T13:33:56.352Z,18.80
2022-12-19T13:39:51.733Z,16.47
2022-12-19T13:40:11.084Z,19.30
2022-12-19T13:43:11.440Z,17.87
2022-12-19T13:45:40.531Z,16.40
2022-12-19T13:48:18.452Z,17.97
2022-12-19T13:50:48.029Z,18.13
2022-12-19T13:53:18.383Z,18.70
2022-12-19T13:55:45.623Z,18.17
2022-12-19T13:58:28.447Z,18.70
2022-12-19T14:01:01.834Z,17.83
2022-12-19T14:03:40.480Z,19.10
2022-12-19T14:06:20.615Z,17.83
2022-12-19T14:09:37.311Z,16.73
2022-12-19T14:12:28.764Z,16.93
2022-12-19T14:15:12.833Z,21.00
2022-12-19T14:17:40.835Z,15.63
2022-12-19T14:22:02.189Z,15.30
2022-12-19T14:23:09.749Z,15.40
2022-12-19T14:28:18.859Z,18.17
2022-12-19T14:29:09.224Z,15.77
2022-12-19T14:32:15.203Z,15.90
2022-12-19T14:35:03.927Z,16.27
2022-12-19T14:39:18.144Z,16.40
2022-12-19T14:40:24.925Z,15.27
2022-12-19T14:43:59.774Z,13.23
2022-12-19T14:54:09.464Z,14.85
2022-12-19T14:54:09.566Z,15.30
2022-12-19T14:54:20.955Z,17.40
2022-12-19T14:56:08.549Z,13.70
2022-12-19T14:58:54.408Z,17.27
2022-12-19T15:01:09.246Z,19.13
2022-12-19T15:04:52.362Z,15.43
2022-12-19T15:07:07.281Z,13.40
2022-12-19T15:11:03.776Z,16.87
2022-12-19T15:14:49.012Z,12.90
2022-12-19T15:15:55.675Z,13.50
2022-12-19T15:18:29.004Z,14.80
2022-12-19T15:20:57.945Z,15.83
2022-12-19T15:23:25.295Z,13.57
2022-12-19T15:26:11.511Z,12.87
2022-12-19T15:28:43.962Z,14.73
2022-12-19T15:31:28.238Z,14.30
2022-12-19T15:36:42.093Z,14.13
2022-12-19T15:39:11.153Z,11.83
2022-12-19T15:41:37.878Z,12.97
2022-12-19T15:44:14.317Z,13.83
2022-12-19T15:46:48.115Z,13.33
2022-12-19T15:49:22.405Z,13.23
2022-12-19T15:51:49.907Z,12.87
2022-12-19T15:57:06.241Z,13.37
2022-12-19T15:59:41.573Z,13.20
2022-12-19T16:02:49.647Z,12.37
2022-12-19T16:05:18.325Z,12.93
2022-12-19T16:07:45.770Z,13.33
2022-12-19T16:10:14.062Z,13.93
2022-12-19T16:12:48.022Z,16.17
2022-12-19T16:15:37.835Z,14.18
2022-12-19T16:18:04.622Z,14.20
2022-12-19T16:20:35.931Z,12.90
2022-12-19T16:23:05.139Z,11.97
2022-12-19T16:25:40.931Z,12.63
2022-12-19T16:28:18.811Z,12.47
2022-12-19T16:30:46.149Z,11.60
2022-12-19T16:33:30.319Z,11.03
2022-12-19T16:36:06.683Z,11.93
2022-12-19T16:38:33.825Z,11.83
2022-12-19T16:41:01.704Z,12.37
2022-12-19T16:43:31.839Z,11.20
2022-12-19T16:46:02.218Z,11.23
2022-12-19T16:48:31.308Z,10.93
2022-12-19T16:50:59.253Z,10.60
2022-12-19T16:53:26.447Z,12.83
2022-12-19T16:55:56.695Z,11.32
2022-12-19T16:58:27.172Z,10.70
2022-12-19T17:00:57.018Z,11.27
2022-12-19T17:03:37.278Z,12.30
2022-12-19T17:06:08.408Z,11.00
2022-12-19T17:08:37.338Z,12.00
2022-12-19T17:11:07.635Z,12.37
2022-12-19T17:13:34.568Z,11.53
2022-12-19T17:16:01.513Z,11.00
2022-12-19T17:18:40.563Z,11.77
2022-12-19T17:21:07.791Z,11.37
2022-12-19T17:23:34.567Z,13.50
2022-12-19T17:26:01.324Z,11.50
2022-12-19T17:28:28.994Z,10.63
2022-12-19T17:30:59.185Z,11.57
2022-12-19T17:33:40.882Z,9.63
2022-12-19T17:36:11.642Z,12.30
2022-12-19T17:38:38.369Z,11.65
2022-12-19T17:41:05.323Z,10.50
2022-12-19T17:43:31.986Z,12.47
2022-12-19T17:46:01.267Z,12.83
2022-12-19T17:48:31.227Z,12.70
2022-12-19T17:51:00.650Z,12.93
2022-12-19T17:53:27.523Z,12.95
2022-12-19T17:55:54.391Z,11.90
2022-12-19T17:58:23.594Z,11.73
2022-12-19T18:00:51.448Z,12.97
2022-12-19T18:03:21.471Z,14.13
2022-12-19T18:05:49.677Z,11.87
2022-12-19T18:08:22.338Z,11.90
2022-12-19T18:10:49.066Z,12.20
2022-12-19T18:13:18.759Z,12.33
2022-12-19T18:15:47.859Z,11.47
2022-12-19T18:18:16.344Z,12.27
2022-12-19T18:20:44.623Z,13.43
2022-12-19T18:23:20.248Z,12.13
2022-12-19T18:25:47.512Z,13.90
2022-12-19T18:28:18.038Z,12.80
2022-12-19T18:30:46.215Z,11.13
2022-12-19T18:33:22.391Z,12.80
2022-12-19T18:35:50.060Z,11.77
2022-12-19T18:38:18.065Z,13.40
2022-12-19T18:40:45.666Z,10.80
2022-12-19T18:43:18.459Z,13.00
2022-12-19T18:45:51.507Z,12.13
2022-12-19T18:48:39.001Z,11.53
2022-12-19T18:51:06.101Z,13.80
2022-12-19T18:53:36.395Z,11.50
2022-12-19T18:56:05.994Z,12.20
2022-12-19T18:58:35.884Z,12.70
2022-12-19T19:01:04.719Z,12.30
2022-12-19T19:03:34.695Z,11.83
2022-12-19T19:06:02.031Z,10.23
2022-12-19T19:08:31.285Z,10.30
2022-12-19T19:10:58.666Z,11.77
2022-12-19T19:13:26.777Z,15.03
2022-12-19T19:15:57.429Z,10.03
2022-12-19T19:18:44.936Z,9.77
2022-12-19T19:21:16.001Z,9.83
2022-12-19T19:23:51.453Z,11.40
2022-12-19T19:26:20.772Z,11.73
2022-12-19T19:28:52.188Z,11.70
2022-12-19T19:31:26.328Z,11.93
2022-12-19T19:34:04.815Z,10.40
2022-12-19T19:36:35.813Z,10.40
2022-12-19T19:39:04.610Z,9.43
2022-12-19T19:41:34.264Z,9.93
2022-12-19T19:44:01.403Z,11.93
2022-12-19T19:46:28.553Z,10.17
2022-12-19T19:48:55.727Z,11.43
2022-12-19T19:51:25.016Z,11.90
2022-12-19T19:53:51.717Z,9.97
2022-12-19T19:56:18.416Z,9.67
2022-12-19T19:58:47.496Z,11.13
2022-12-19T20:01:14.345Z,10.53
2022-12-19T20:03:44.808Z,11.57
2022-12-19T20:06:12.134Z,11.93
2022-12-19T20:08:40.513Z,10.37
2022-12-19T20:11:11.012Z,10.67
2022-12-19T20:13:38.331Z,10.23
2022-12-19T20:16:11.092Z,10.33
2022-12-19T20:18:41.078Z,12.07
2022-12-19T20:21:13.544Z,11.37
2022-12-19T20:23:44.046Z,10.48
2022-12-19T20:26:13.031Z,10.60
2022-12-19T20:28:48.539Z,10.03
2022-12-19T20:31:20.086Z,10.13
2022-12-19T20:33:48.106Z,10.70
2022-12-19T20:36:15.438Z,10.57
2022-12-19T20:38:42.484Z,11.67
2022-12-19T20:41:09.349Z,9.17
2022-12-19T20:43:37.554Z,12.13
2022-12-19T20:46:10.957Z,14.17
2022-12-19T20:48:38.253Z,13.40
2022-12-19T20:51:08.643Z,12.00
2022-12-19T20:53:38.947Z,12.23
2022-12-19T20:56:09.346Z,12.43
2022-12-19T20:58:37.618Z,12.20
2022-12-19T21:01:11.312Z,13.73
2022-12-19T21:03:39.316Z,12.13
2022-12-19T21:06:07.637Z,15.27
2022-12-19T21:08:37.190Z,15.27
2022-12-19T21:11:07.699Z,17.00
2022-12-19T21:13:34.748Z,18.13
2022-12-19T21:16:08.414Z,19.58
2022-12-19T21:18:39.031Z,20.47
2022-12-19T21:21:08.691Z,19.87
2022-12-19T21:23:35.719Z,18.97
2022-12-19T21:26:04.770Z,16.67
2022-12-19T21:28:32.298Z,17.47
2022-12-19T21:31:08.100Z,19.80
2022-12-19T21:33:37.004Z,22.70
2022-12-19T21:36:08.359Z,20.63
2022-12-19T21:38:35.263Z,17.70
2022-12-19T21:41:03.889Z,18.38
2022-12-19T21:43:32.428Z,19.57
2022-12-19T21:46:12.310Z,18.10
2022-12-19T21:48:43.022Z,18.90
2022-12-19T21:51:11.641Z,16.37
2022-12-19T21:53:39.296Z,17.63
2022-12-19T21:56:09.005Z,19.93
2022-12-19T21:58:35.735Z,12.03
2022-12-19T22:01:12.667Z,17.97
2022-12-19T22:03:42.933Z,17.80
2022-12-19T22:06:25.547Z,16.43
2022-12-19T22:08:57.034Z,14.53
2022-12-19T22:11:26.621Z,15.90
2022-12-19T22:13:53.786Z,16.97
2022-12-19T22:16:22.878Z,15.00
2022-12-19T22:18:52.964Z,15.30
2022-12-19T22:21:20.725Z,15.75
2022-12-19T22:23:47.411Z,17.73
2022-12-19T22:26:15.396Z,15.97
2022-12-19T22:28:44.684Z,14.83
2022-12-19T22:31:24.667Z,16.47
2022-12-19T22:33:56.223Z,19.83
2022-12-19T22:36:28.458Z,16.80
2022-12-19T22:38:56.760Z,19.53
2022-12-19T22:41:23.823Z,15.07
2022-12-19T22:43:50.944Z,16.13
2022-12-19T22:46:26.535Z,18.50
2022-12-19T22:48:55.185Z,14.53
2022-12-19T22:51:28.471Z,15.00
2022-12-19T22:53:55.510Z,16.20
2022-12-19T22:56:27.085Z,15.77
2022-12-19T22:59:01.068Z,16.17
2022-12-19T23:01:36.975Z,16.03
2022-12-19T23:04:07.355Z,14.60
2022-12-19T23:06:38.453Z,17.47
2022-12-19T23:09:13.469Z,17.03
2022-12-19T23:11:44.783Z,15.53
2022-12-19T23:14:14.988Z,15.50
2022-12-19T23:16:43.437Z,14.30
2022-12-19T23:19:16.367Z,15.63
2022-12-19T23:21:45.847Z,13.50
2022-12-19T23:24:15.327Z,14.40
2022-12-19T23:26:49.329Z,13.03
2022-12-19T23:29:18.399Z,12.83
2022-12-19T23:31:46.762Z,16.80
2022-12-19T23:34:14.949Z,14.50
2022-12-19T23:39:31.163Z,14.00
2022-12-19T23:42:00.315Z,12.63
2022-12-19T23:44:27.344Z,12.83
2022-12-19T23:47:00.881Z,14.83
2022-12-19T23:49:29.595Z,12.80
2022-12-19T23:51:56.378Z,15.73
2022-12-19T23:54:25.307Z,12.17
2022-12-19T23:56:54.410Z,14.13
2022-12-19T23:59:21.117Z,11.90
